Time;durP1;ratioP1;P1;durP2;ratioP2;P2;SDS_P1;SDS_P2;PMS_P1;PMS_P2;Temp;Humidity;BMP_temperature;BMP_pressure;BME280_temperature;BME280_humidity;BME280_pressure;Samples;Min_cycle;Max_cycle;Signal;HPM_P1;HPM_P2
2022/09/29 00:00:56;;;;;;;5.13;1.40;;;;;;;;;;5032909;28;20379;-77
2022/09/29 00:03:23;;;;;;;4.65;1.33;;;;;;;;;;5048293;28;20029;-76
2022/09/29 00:05:50;;;;;;;6.57;1.35;;;;;;;;;;5033507;28;20021;-76
2022/09/29 00:08:16;;;;;;;6.00;1.40;;;;;;;;;;5032907;28;20025;-76
2022/09/29 00:10:42;;;;;;;8.18;2.10;;;;;;;;;;5049125;28;20045;-76
2022/09/29 00:13:08;;;;;;;11.88;2.42;;;;;;;;;;5037023;28;20052;-77
2022/09/29 00:15:34;;;;;;;7.32;1.50;;;;;;;;;;5036673;28;20056;-77
2022/09/29 00:18:00;;;;;;;5.60;1.75;;;;;;;;;;5036675;28;20033;-76
2022/09/29 00:20:26;;;;;;;5.32;1.45;;;;;;;;;;5037035;28;20030;-76
2022/09/29 00:22:52;;;;;;;6.32;1.80;;;;;;;;;;5036812;28;20029;-76
2022/09/29 00:25:18;;;;;;;3.42;1.75;;;;;;;;;;5036507;28;20477;-76
2022/09/29 00:27:44;;;;;;;2.78;1.20;;;;;;;;;;5036575;28;20033;-76
2022/09/29 00:30:11;;;;;;;5.47;1.92;;;;;;;;;;5036210;28;20116;-76
2022/09/29 00:32:37;;;;;;;7.13;1.77;;;;;;;;;;5036943;28;20055;-77
2022/09/29 00:35:03;;;;;;;4.40;1.75;;;;;;;;;;5036339;28;20021;-77
2022/09/29 00:37:29;;;;;;;5.88;2.33;;;;;;;;;;5036875;28;20100;-76
2022/09/29 00:39:55;;;;;;;7.47;1.70;;;;;;;;;;5051663;28;20026;-77
2022/09/29 00:42:22;;;;;;;4.32;1.50;;;;;;;;;;5036397;28;20032;-76
2022/09/29 00:45:07;;;;;;;6.10;1.90;;;;;;;;;;5036428;28;20377;-76
2022/09/29 00:47:35;;;;;;;6.28;1.60;;;;;;;;;;5036129;28;20396;-76
2022/09/29 00:50:04;;;;;;;7.45;1.52;;;;;;;;;;5036090;28;20017;-76
2022/09/29 00:52:33;;;;;;;7.20;1.75;;;;;;;;;;5036318;28;20040;-76
2022/09/29 00:55:06;;;;;;;4.75;1.60;;;;;;;;;;5035939;28;20121;-76
2022/09/29 00:57:45;;;;;;;4.20;1.20;;;;;;;;;;5035938;28;20040;-77
2022/09/29 01:00:12;;;;;;;7.13;1.50;;;;;;;;;;5036397;28;20037;-75
2022/09/29 01:02:40;;;;;;;3.00;1.67;;;;;;;;;;5035811;28;20029;-76
2022/09/29 01:05:09;;;;;;;6.45;1.80;;;;;;;;;;5051119;28;20504;-76
2022/09/29 01:07:35;;;;;;;4.55;1.98;;;;;;;;;;5035716;28;20029;-76
2022/09/29 01:10:01;;;;;;;4.93;1.48;;;;;;;;;;5050968;28;20026;-77
2022/09/29 01:12:27;;;;;;;4.70;1.38;;;;;;;;;;5035891;28;20033;-77
2022/09/29 01:14:54;;;;;;;6.57;1.63;;;;;;;;;;5035820;28;20029;-76
2022/09/29 01:17:21;;;;;;;3.08;1.60;;;;;;;;;;5035572;28;20105;-75
2022/09/29 01:20:01;;;;;;;8.82;1.52;;;;;;;;;;5036260;28;20025;-76
2022/09/29 01:22:27;;;;;;;4.90;1.58;;;;;;;;;;5034811;28;20030;-76
2022/09/29 01:24:54;;;;;;;4.03;1.60;;;;;;;;;;5035681;28;20075;-76
2022/09/29 01:27:31;;;;;;;2.75;1.23;;;;;;;;;;5035340;28;20029;-77
2022/09/29 01:30:15;;;;;;;3.58;1.38;;;;;;;;;;5035375;28;20050;-77
2022/09/29 01:33:00;;;;;;;7.93;2.33;;;;;;;;;;5050603;28;20038;-75
2022/09/29 01:35:26;;;;;;;4.60;1.40;;;;;;;;;;5035274;28;20030;-75
2022/09/29 01:38:01;;;;;;;4.78;1.50;;;;;;;;;;5035483;28;20067;-77
2022/09/29 01:40:54;;;;;;;8.45;1.50;;;;;;;;;;5035038;28;20039;-76
2022/09/29 01:43:22;;;;;;;2.10;1.30;;;;;;;;;;5030350;28;20038;-77
2022/09/29 01:48:39;;;;;;;6.03;1.75;;;;;;;;;;5035043;28;20401;-77
2022/09/29 01:51:09;;;;;;;3.40;1.50;;;;;;;;;;5034900;28;20029;-76
2022/09/29 01:53:41;;;;;;;5.07;1.80;;;;;;;;;;5050217;28;20041;-76
2022/09/29 01:56:08;;;;;;;4.88;1.58;;;;;;;;;;5034885;28;20466;-76
2022/09/29 01:58:42;;;;;;;9.85;2.13;;;;;;;;;;5035056;28;20389;-76
2022/09/29 02:01:11;;;;;;;1.52;1.30;;;;;;;;;;5049752;28;20026;-77
2022/09/29 02:03:43;;;;;;;4.97;1.75;;;;;;;;;;5049993;28;20057;-76
2022/09/29 02:06:16;;;;;;;5.90;2.05;;;;;;;;;;5034881;28;20030;-76
2022/09/29 02:08:45;;;;;;;5.60;1.60;;;;;;;;;;5034572;28;20023;-76
2022/09/29 02:11:12;;;;;;;5.38;1.52;;;;;;;;;;5035123;28;20025;-77
2022/09/29 02:13:43;;;;;;;4.43;1.42;;;;;;;;;;5034507;28;20057;-76
2022/09/29 02:16:11;;;;;;;6.78;1.77;;;;;;;;;;5035094;28;20029;-77
2022/09/29 02:18:42;;;;;;;5.30;1.40;;;;;;;;;;5034348;28;20382;-76
2022/09/29 02:21:08;;;;;;;5.20;1.60;;;;;;;;;;5034827;28;20033;-76
2022/09/29 02:23:34;;;;;;;5.75;1.73;;;;;;;;;;5034300;28;20060;-77
2022/09/29 02:26:02;;;;;;;6.95;1.80;;;;;;;;;;5034284;28;20022;-76
2022/09/29 02:28:28;;;;;;;5.68;1.40;;;;;;;;;;5034145;28;20057;-76
2022/09/29 02:30:54;;;;;;;4.32;1.40;;;;;;;;;;5034078;28;20057;-75
2022/09/29 02:33:21;;;;;;;5.10;1.73;;;;;;;;;;5049157;28;20057;-76
2022/09/29 02:36:02;;;;;;;5.88;1.60;;;;;;;;;;5034367;28;20025;-76
2022/09/29 02:38:50;;;;;;;7.15;2.00;;;;;;;;;;5034296;28;20032;-76
2022/09/29 02:41:16;;;;;;;5.93;1.83;;;;;;;;;;5034234;28;20037;-77
2022/09/29 02:43:57;;;;;;;4.95;1.83;;;;;;;;;;5033904;28;20168;-75
2022/09/29 02:46:23;;;;;;;6.45;1.65;;;;;;;;;;5033844;28;20025;-76
2022/09/29 02:48:59;;;;;;;3.88;1.55;;;;;;;;;;5033822;28;20028;-77
2022/09/29 02:51:36;;;;;;;4.13;1.60;;;;;;;;;;5034107;28;20056;-76
2022/09/29 02:54:10;;;;;;;6.80;1.90;;;;;;;;;;5034132;28;20381;-77
2022/09/29 02:56:36;;;;;;;4.28;2.13;;;;;;;;;;5033985;28;20025;-76
2022/09/29 02:59:20;;;;;;;6.90;1.80;;;;;;;;;;5033665;28;20151;-76
2022/09/29 03:01:50;;;;;;;4.25;1.65;;;;;;;;;;5033550;28;20117;-76
2022/09/29 03:04:17;;;;;;;6.25;2.20;;;;;;;;;;5033601;28;20029;-76
2022/09/29 03:06:43;;;;;;;7.78;1.40;;;;;;;;;;5033584;28;20025;-74
2022/09/29 03:09:10;;;;;;;7.30;1.98;;;;;;;;;;5048796;28;20504;-77
2022/09/29 03:11:35;;;;;;;3.88;1.42;;;;;;;;;;5033816;28;20063;-77
2022/09/29 03:14:02;;;;;;;6.35;1.65;;;;;;;;;;5033713;28;20057;-76
2022/09/29 03:16:28;;;;;;;5.75;1.73;;;;;;;;;;5033434;28;20029;-77
2022/09/29 03:18:55;;;;;;;7.70;1.80;;;;;;;;;;5033374;28;20036;-77
2022/09/29 03:21:21;;;;;;;4.63;1.83;;;;;;;;;;5034077;28;20462;-76
2022/09/29 03:23:47;;;;;;;7.57;2.10;;;;;;;;;;5033332;28;20028;-77
2022/09/29 03:26:13;;;;;;;8.40;1.80;;;;;;;;;;5033536;28;20092;-77
2022/09/29 03:28:39;;;;;;;7.28;1.98;;;;;;;;;;5033226;28;20100;-77
2022/09/29 03:31:09;;;;;;;5.43;1.58;;;;;;;;;;5033166;28;20041;-76
2022/09/29 03:33:38;;;;;;;7.47;2.17;;;;;;;;;;5033740;28;20059;-76
2022/09/29 03:36:05;;;;;;;7.23;2.00;;;;;;;;;;5033561;28;20030;-76
2022/09/29 03:38:32;;;;;;;8.98;1.90;;;;;;;;;;5033227;28;20263;-77
2022/09/29 03:40:58;;;;;;;4.70;1.77;;;;;;;;;;5033365;28;20029;-76
2022/09/29 03:43:24;;;;;;;9.52;2.25;;;;;;;;;;5048488;28;20021;-77
2022/09/29 03:45:50;;;;;;;6.07;1.88;;;;;;;;;;5034250;28;20489;-76
2022/09/29 03:48:17;;;;;;;7.70;1.90;;;;;;;;;;5037473;28;20060;-76
2022/09/29 03:50:44;;;;;;;6.22;2.22;;;;;;;;;;5037424;28;20102;-76
2022/09/29 03:53:10;;;;;;;6.53;2.13;;;;;;;;;;5037124;28;20036;-76
2022/09/29 03:55:36;;;;;;;6.20;2.40;;;;;;;;;;5037081;28;20030;-76
2022/09/29 03:58:02;;;;;;;8.60;2.80;;;;;;;;;;5037055;28;20025;-76
2022/09/29 04:00:28;;;;;;;5.47;2.15;;;;;;;;;;5037206;28;20030;-78
2022/09/29 04:02:54;;;;;;;8.07;2.50;;;;;;;;;;5052284;28;20095;-76
2022/09/29 04:05:20;;;;;;;7.82;2.60;;;;;;;;;;5036906;28;20025;-75
2022/09/29 04:07:46;;;;;;;6.93;2.60;;;;;;;;;;5037117;28;20477;-76
2022/09/29 04:10:13;;;;;;;5.15;2.10;;;;;;;;;;5036770;28;20026;-76
2022/09/29 04:12:39;;;;;;;7.40;2.20;;;;;;;;;;5037013;28;20053;-76
2022/09/29 04:15:05;;;;;;;6.93;2.20;;;;;;;;;;5036995;28;20056;-75
2022/09/29 04:17:31;;;;;;;4.57;2.10;;;;;;;;;;5036952;28;20057;-76
2022/09/29 04:19:57;;;;;;;5.25;2.10;;;;;;;;;;5052476;28;20496;-76
2022/09/29 04:22:23;;;;;;;12.50;2.38;;;;;;;;;;5036489;28;20072;-76
2022/09/29 04:24:50;;;;;;;7.88;2.13;;;;;;;;;;5036480;28;20025;-77
2022/09/29 04:27:17;;;;;;;7.47;2.22;;;;;;;;;;5036590;28;20025;-77
2022/09/29 04:29:43;;;;;;;6.22;1.88;;;;;;;;;;5036443;28;20026;-76
2022/09/29 04:32:09;;;;;;;6.15;2.00;;;;;;;;;;5051480;28;20627;-77
2022/09/29 04:34:35;;;;;;;6.57;2.47;;;;;;;;;;5036834;28;20063;-76
2022/09/29 04:37:02;;;;;;;4.95;2.63;;;;;;;;;;5036288;28;20068;-76
2022/09/29 04:39:28;;;;;;;4.00;1.83;;;;;;;;;;5036467;28;20555;-77
2022/09/29 04:41:54;;;;;;;5.07;1.88;;;;;;;;;;5036138;28;20039;-76
2022/09/29 04:44:21;;;;;;;6.55;2.22;;;;;;;;;;5036160;28;20152;-75
2022/09/29 04:46:49;;;;;;;5.07;2.03;;;;;;;;;;5036425;28;20025;-76
2022/09/29 04:49:15;;;;;;;8.48;2.55;;;;;;;;;;5051400;28;20021;-76
2022/09/29 04:51:41;;;;;;;4.25;2.10;;;;;;;;;;5036310;28;20043;-76
2022/09/29 04:54:07;;;;;;;9.98;2.50;;;;;;;;;;5035980;28;20021;-74
2022/09/29 04:56:33;;;;;;;7.47;2.25;;;;;;;;;;5035771;28;20021;-77
2022/09/29 04:58:59;;;;;;;7.45;2.08;;;;;;;;;;5035910;28;20021;-75
2022/09/29 05:01:25;;;;;;;8.73;2.70;;;;;;;;;;5035762;28;20488;-77
2022/09/29 05:03:51;;;;;;;5.88;2.65;;;;;;;;;;5035818;28;20038;-77
2022/09/29 05:06:17;;;;;;;7.50;2.40;;;;;;;;;;5035756;28;20026;-76
2022/09/29 05:08:44;;;;;;;5.70;2.10;;;;;;;;;;5035981;28;20025;-76
2022/09/29 05:11:10;;;;;;;6.40;2.22;;;;;;;;;;5036016;28;20033;-76
2022/09/29 05:13:36;;;;;;;8.25;2.55;;;;;;;;;;5036162;28;20021;-76
2022/09/29 05:16:03;;;;;;;6.72;2.05;;;;;;;;;;5036161;28;20151;-76
2022/09/29 05:18:29;;;;;;;8.82;2.17;;;;;;;;;;5050962;28;20044;-76
2022/09/29 05:20:55;;;;;;;9.85;2.35;;;;;;;;;;5036507;28;20116;-77
2022/09/29 05:23:21;;;;;;;8.07;2.55;;;;;;;;;;5035965;28;20025;-76
2022/09/29 05:25:48;;;;;;;8.98;1.88;;;;;;;;;;5035730;28;20021;-77
2022/09/29 05:28:14;;;;;;;3.70;1.65;;;;;;;;;;5035309;28;20032;-76
2022/09/29 05:30:41;;;;;;;5.65;2.22;;;;;;;;;;5035112;28;20063;-76
2022/09/29 05:33:07;;;;;;;8.85;2.60;;;;;;;;;;5035321;28;20029;-76
2022/09/29 05:35:33;;;;;;;4.68;1.75;;;;;;;;;;5035296;28;20440;-76
2022/09/29 05:37:59;;;;;;;9.43;2.03;;;;;;;;;;5035226;28;20026;-76
2022/09/29 05:40:25;;;;;;;5.05;1.70;;;;;;;;;;5035097;28;20029;-76
2022/09/29 05:42:52;;;;;;;4.70;1.92;;;;;;;;;;5035190;28;20063;-76
2022/09/29 05:45:18;;;;;;;5.20;1.67;;;;;;;;;;5035055;28;20036;-76
2022/09/29 05:47:44;;;;;;;9.13;2.00;;;;;;;;;;5035047;28;20025;-76
2022/09/29 05:50:11;;;;;;;4.78;1.70;;;;;;;;;;5035208;28;20032;-76
2022/09/29 05:52:38;;;;;;;6.07;1.80;;;;;;;;;;5035178;28;20035;-75
2022/09/29 05:55:04;;;;;;;6.28;2.00;;;;;;;;;;5034891;28;20505;-76
2022/09/29 05:57:30;;;;;;;4.68;1.98;;;;;;;;;;5034849;28;20072;-76
2022/09/29 05:59:56;;;;;;;10.48;2.17;;;;;;;;;;5034820;28;20026;-76
2022/09/29 06:02:22;;;;;;;4.38;1.52;;;;;;;;;;5034662;28;20108;-76
2022/09/29 06:04:48;;;;;;;6.63;1.77;;;;;;;;;;5034697;28;20022;-75
2022/09/29 06:07:14;;;;;;;7.68;1.98;;;;;;;;;;5034625;28;20026;-76
2022/09/29 06:09:40;;;;;;;9.07;2.10;;;;;;;;;;5033961;28;20022;-76
2022/09/29 06:12:06;;;;;;;3.00;1.58;;;;;;;;;;5034522;28;20028;-76
2022/09/29 06:14:32;;;;;;;6.60;1.90;;;;;;;;;;5034495;28;20079;-77
2022/09/29 06:16:58;;;;;;;3.67;1.70;;;;;;;;;;5034485;28;20032;-76
2022/09/29 06:19:24;;;;;;;6.30;2.08;;;;;;;;;;5034682;28;20037;-77
2022/09/29 06:21:50;;;;;;;10.30;1.95;;;;;;;;;;5034769;28;20075;-76
2022/09/29 06:24:16;;;;;;;6.95;1.90;;;;;;;;;;5034304;28;20072;-75
2022/09/29 06:26:42;;;;;;;6.30;2.22;;;;;;;;;;5034280;28;20063;-76
2022/09/29 06:29:08;;;;;;;6.05;1.80;;;;;;;;;;5034144;28;20026;-76
2022/09/29 06:31:34;;;;;;;9.20;2.38;;;;;;;;;;5033923;28;20420;-76
2022/09/29 06:34:02;;;;;;;6.00;1.75;;;;;;;;;;5034124;28;20163;-76
2022/09/29 06:39:38;;;;;;;4.32;1.90;;;;;;;;;;4973213;28;20038;-76
2022/09/29 06:42:04;;;;;;;9.48;2.00;;;;;;;;;;4973424;28;20480;-75
2022/09/29 06:44:30;;;;;;;7.28;2.45;;;;;;;;;;5001789;28;20041;-77
2022/09/29 06:46:57;;;;;;;6.63;2.45;;;;;;;;;;5034145;28;20028;-76
2022/09/29 06:49:23;;;;;;;7.07;2.00;;;;;;;;;;5033852;28;20378;-76
2022/09/29 06:51:50;;;;;;;8.85;2.17;;;;;;;;;;5033795;28;20100;-76
2022/09/29 06:54:17;;;;;;;5.38;2.05;;;;;;;;;;5033758;28;20030;-76
2022/09/29 06:56:46;;;;;;;3.92;2.05;;;;;;;;;;5034081;28;20030;-77
2022/09/29 06:59:12;;;;;;;5.47;2.60;;;;;;;;;;5033775;28;20473;-76
2022/09/29 07:01:38;;;;;;;7.78;2.13;;;;;;;;;;5033560;28;20021;-77
2022/09/29 07:04:04;;;;;;;9.07;2.42;;;;;;;;;;5033837;28;20060;-76
2022/09/29 07:06:30;;;;;;;5.63;2.05;;;;;;;;;;5033548;28;20385;-76
2022/09/29 07:08:57;;;;;;;6.47;1.70;;;;;;;;;;5033499;28;20071;-76
2022/09/29 07:11:23;;;;;;;3.85;1.80;;;;;;;;;;5033791;28;20075;-76
2022/09/29 07:13:50;;;;;;;6.97;2.20;;;;;;;;;;5033500;28;20425;-76
2022/09/29 07:16:16;;;;;;;5.65;1.98;;;;;;;;;;5033390;28;20100;-76
2022/09/29 07:18:43;;;;;;;6.78;1.83;;;;;;;;;;5034010;28;20473;-75
2022/09/29 07:21:10;;;;;;;5.47;1.92;;;;;;;;;;5033029;28;20502;-76
2022/09/29 07:23:37;;;;;;;5.55;1.83;;;;;;;;;;5033642;28;20025;-77
2022/09/29 07:26:03;;;;;;;4.78;1.85;;;;;;;;;;5033299;28;20596;-77
2022/09/29 07:28:30;;;;;;;3.75;1.70;;;;;;;;;;5033229;28;20382;-76
2022/09/29 07:31:04;;;;;;;6.25;1.52;;;;;;;;;;5033170;28;20124;-76
2022/09/29 07:33:30;;;;;;;4.85;2.30;;;;;;;;;;5033528;28;20029;-77
2022/09/29 07:35:59;;;;;;;8.80;2.33;;;;;;;;;;5033515;28;20030;-77
2022/09/29 07:38:25;;;;;;;3.60;1.55;;;;;;;;;;5048581;28;20037;-76
2022/09/29 07:40:51;;;;;;;8.18;2.08;;;;;;;;;;5033079;28;20040;-76
2022/09/29 07:43:17;;;;;;;6.03;1.88;;;;;;;;;;5033125;28;20025;-76
2022/09/29 07:45:47;;;;;;;8.15;2.88;;;;;;;;;;5033460;28;20067;-75
2022/09/29 07:48:14;;;;;;;;;;;;;;;;;;5033515;28;20021;-77
2022/09/29 07:50:40;;;;;;;3.00;1.55;;;;;;;;;;5033203;28;20415;-77
2022/09/29 07:53:06;;;;;;;7.20;2.53;;;;;;;;;;5048398;28;20025;-76
2022/09/29 07:55:32;;;;;;;4.32;2.17;;;;;;;;;;5033251;28;20033;-77
2022/09/29 07:57:58;;;;;;;5.80;1.83;;;;;;;;;;5033415;28;20517;-77
2022/09/29 08:00:24;;;;;;;6.18;1.60;;;;;;;;;;5032891;28;20033;-76
2022/09/29 08:02:50;;;;;;;3.33;1.05;;;;;;;;;;5048286;28;20017;-76
2022/09/29 08:05:16;;;;;;;6.53;1.40;;;;;;;;;;5032914;28;20491;-77
2022/09/29 08:07:42;;;;;;;5.50;1.35;;;;;;;;;;5033272;28;20021;-77
2022/09/29 08:10:08;;;;;;;5.75;1.30;;;;;;;;;;5032943;28;20049;-77
2022/09/29 08:12:34;;;;;;;2.50;1.00;;;;;;;;;;5032904;28;20397;-76
2022/09/29 08:15:00;;;;;;;3.55;1.20;;;;;;;;;;5032836;28;20026;-78
2022/09/29 08:17:26;;;;;;;6.40;1.80;;;;;;;;;;5032819;28;20025;-77
2022/09/29 08:19:52;;;;;;;7.40;1.45;;;;;;;;;;5032835;28;20432;-77
2022/09/29 08:22:18;;;;;;;5.15;1.40;;;;;;;;;;5033254;28;20029;-78
2022/09/29 08:24:45;;;;;;;6.32;1.40;;;;;;;;;;5032996;28;20036;-76
2022/09/29 08:27:11;;;;;;;6.20;1.30;;;;;;;;;;5032655;28;20025;-77
2022/09/29 08:29:37;;;;;;;5.70;1.40;;;;;;;;;;5032574;28;20029;-77
2022/09/29 08:32:03;;;;;;;6.93;1.45;;;;;;;;;;5034026;28;20509;-76
2022/09/29 08:34:29;;;;;;;3.97;1.60;;;;;;;;;;5036386;28;20033;-76
2022/09/29 08:36:55;;;;;;;5.47;1.63;;;;;;;;;;5036322;28;20401;-77
2022/09/29 08:39:21;;;;;;;7.75;1.65;;;;;;;;;;5036304;28;20025;-77
2022/09/29 08:41:47;;;;;;;4.53;1.70;;;;;;;;;;5036199;28;20541;-77
2022/09/29 08:44:13;;;;;;;6.40;1.70;;;;;;;;;;5036213;28;20143;-77
2022/09/29 08:46:40;;;;;;;4.30;1.30;;;;;;;;;;5036151;28;20363;-77
2022/09/29 08:49:10;;;;;;;12.02;1.85;;;;;;;;;;5036103;28;20021;-77
2022/09/29 08:51:45;;;;;;;3.33;1.58;;;;;;;;;;5036066;28;20116;-77
2022/09/29 08:54:28;;;;;;;2.78;1.10;;;;;;;;;;5051154;28;20029;-77
2022/09/29 08:56:54;;;;;;;5.90;1.60;;;;;;;;;;5036293;28;20112;-77
2022/09/29 08:59:24;;;;;;;6.30;2.35;;;;;;;;;;5035939;28;20101;-77
2022/09/29 09:01:50;;;;;;;2.30;1.50;;;;;;;;;;5035906;28;20029;-76
2022/09/29 09:04:16;;;;;;;2.65;1.40;;;;;;;;;;5035894;28;20045;-76
2022/09/29 09:06:46;;;;;;;5.53;2.30;;;;;;;;;;5035821;28;20033;-77
2022/09/29 09:09:18;;;;;;;4.43;1.40;;;;;;;;;;5036059;28;20053;-77
2022/09/29 09:11:47;;;;;;;4.07;1.30;;;;;;;;;;5035740;28;20115;-77
2022/09/29 09:14:31;;;;;;;3.15;1.60;;;;;;;;;;5035978;28;20021;-75
2022/09/29 09:17:00;;;;;;;5.38;1.52;;;;;;;;;;5036219;28;20037;-77
2022/09/29 09:19:45;;;;;;;2.45;1.40;;;;;;;;;;5050905;28;20385;-78
2022/09/29 09:22:14;;;;;;;3.60;1.30;;;;;;;;;;5035970;28;20033;-76
2022/09/29 09:24:48;;;;;;;2.90;1.25;;;;;;;;;;5035484;28;20100;-76
2022/09/29 09:27:18;;;;;;;3.58;1.50;;;;;;;;;;5035353;28;20113;-77
2022/09/29 09:29:44;;;;;;;2.97;0.95;;;;;;;;;;5035149;28;20021;-77
2022/09/29 09:32:12;;;;;;;2.63;1.58;;;;;;;;;;5035678;28;20037;-76
2022/09/29 09:34:43;;;;;;;2.75;1.17;;;;;;;;;;5035558;28;20469;-76
2022/09/29 09:37:19;;;;;;;4.65;1.48;;;;;;;;;;5035762;28;20033;-77
2022/09/29 09:39:48;;;;;;;9.00;1.90;;;;;;;;;;5035223;28;20385;-76
2022/09/29 09:42:16;;;;;;;2.78;1.35;;;;;;;;;;5035087;28;20087;-77
2022/09/29 09:44:47;;;;;;;4.25;1.40;;;;;;;;;;5034093;28;20027;-77
2022/09/29 09:47:27;;;;;;;4.15;1.20;;;;;;;;;;5035434;28;20474;-76
2022/09/29 09:50:03;;;;;;;3.17;0.80;;;;;;;;;;5035293;28;20022;-77
2022/09/29 09:52:44;;;;;;;3.65;0.85;;;;;;;;;;5035279;28;20121;-76
2022/09/29 09:55:14;;;;;;;6.95;0.80;;;;;;;;;;5034961;28;20040;-76
2022/09/29 09:57:53;;;;;;;2.95;0.98;;;;;;;;;;5034882;28;20031;-76
2022/09/29 10:00:19;;;;;;;4.32;0.52;;;;;;;;;;5035340;28;20025;-76
2022/09/29 10:02:51;;;;;;;2.60;0.75;;;;;;;;;;5034644;28;20040;-76
2022/09/29 10:05:19;;;;;;;2.08;0.82;;;;;;;;;;5034991;28;20094;-76
2022/09/29 10:07:47;;;;;;;2.08;0.65;;;;;;;;;;5034661;28;20025;-75
2022/09/29 10:10:21;;;;;;;4.05;0.98;;;;;;;;;;5034916;28;20021;-77
2022/09/29 10:12:51;;;;;;;2.63;0.93;;;;;;;;;;5049952;28;20025;-77
2022/09/29 10:15:17;;;;;;;5.43;0.82;;;;;;;;;;5035085;28;20466;-78
2022/09/29 10:17:44;;;;;;;5.13;1.42;;;;;;;;;;5034777;28;20048;-77
2022/09/29 10:20:11;;;;;;;2.03;0.80;;;;;;;;;;5049810;28;20022;-76
2022/09/29 10:22:38;;;;;;;4.60;0.68;;;;;;;;;;5050202;28;20494;-75
2022/09/29 10:25:19;;;;;;;3.45;0.65;;;;;;;;;;5034629;28;20014;-77
2022/09/29 10:27:47;;;;;;;1.45;0.50;;;;;;;;;;5034239;28;20060;-76
2022/09/29 10:30:23;;;;;;;1.70;0.90;;;;;;;;;;5034085;28;20504;-77
2022/09/29 10:32:53;;;;;;;3.22;0.55;;;;;;;;;;5049549;28;20033;-77
2022/09/29 10:35:23;;;;;;;9.18;4.65;;;;;;;;;;5049474;28;20083;-77
2022/09/29 10:38:00;;;;;;;2.55;0.80;;;;;;;;;;5034376;28;20127;-77
2022/09/29 10:40:26;;;;;;;1.27;0.50;;;;;;;;;;5049149;28;20034;-77
2022/09/29 10:42:52;;;;;;;2.47;0.70;;;;;;;;;;5034010;28;20032;-77
2022/09/29 10:45:18;;;;;;;3.00;1.05;;;;;;;;;;5034265;28;20018;-77
2022/09/29 10:47:45;;;;;;;2.33;0.63;;;;;;;;;;5033921;28;20029;-76
2022/09/29 10:50:13;;;;;;;3.55;1.30;;;;;;;;;;5034390;28;20028;-75
2022/09/29 10:52:44;;;;;;;2.85;0.75;;;;;;;;;;5034124;28;20032;-77
2022/09/29 10:55:15;;;;;;;5.35;0.95;;;;;;;;;;5033908;28;20497;-77
2022/09/29 10:57:42;;;;;;;2.72;0.75;;;;;;;;;;5034074;28;20033;-77
2022/09/29 11:00:25;;;;;;;3.60;0.85;;;;;;;;;;5033736;28;20498;-77
2022/09/29 11:02:52;;;;;;;4.68;0.73;;;;;;;;;;5033988;28;20025;-76
2022/09/29 11:05:20;;;;;;;3.58;1.00;;;;;;;;;;5033666;28;20018;-76
2022/09/29 11:07:48;;;;;;;2.42;0.60;;;;;;;;;;5033854;28;20022;-76
2022/09/29 11:10:32;;;;;;;1.95;0.80;;;;;;;;;;5033827;28;20580;-76
2022/09/29 11:12:59;;;;;;;1.67;0.93;;;;;;;;;;5033575;28;20480;-77
2022/09/29 11:15:38;;;;;;;5.45;1.10;;;;;;;;;;5033471;28;20032;-77
2022/09/29 11:18:16;;;;;;;1.98;0.70;;;;;;;;;;5033842;28;20091;-77
2022/09/29 11:20:47;;;;;;;4.28;1.38;;;;;;;;;;5033686;28;20477;-77
2022/09/29 11:23:16;;;;;;;3.13;1.00;;;;;;;;;;5033746;28;20021;-77
2022/09/29 11:25:50;;;;;;;2.70;0.80;;;;;;;;;;5033377;28;20021;-76
2022/09/29 11:28:16;;;;;;;6.45;0.88;;;;;;;;;;5033554;28;20067;-76
2022/09/29 11:30:52;;;;;;;5.97;0.90;;;;;;;;;;5033067;28;20128;-77
2022/09/29 11:33:48;;;;;;;3.60;0.70;;;;;;;;;;5033831;28;20045;-76
2022/09/29 11:36:14;;;;;;;2.45;1.02;;;;;;;;;;5020416;28;20037;-76
2022/09/29 11:38:57;;;;;;;3.88;1.10;;;;;;;;;;5033472;28;20067;-77
2022/09/29 11:41:33;;;;;;;2.80;0.98;;;;;;;;;;5033411;28;20025;-76
2022/09/29 11:44:11;;;;;;;1.80;0.70;;;;;;;;;;5033463;28;20504;-76
2022/09/29 11:46:45;;;;;;;2.35;1.00;;;;;;;;;;5033675;28;20083;-77
2022/09/29 11:49:17;;;;;;;1.67;1.05;;;;;;;;;;5034215;28;20385;-78
2022/09/29 11:51:49;;;;;;;2.00;1.25;;;;;;;;;;5033170;28;20485;-78
2022/09/29 11:54:24;;;;;;;4.55;2.00;;;;;;;;;;5033583;28;20041;-78
2022/09/29 11:56:50;;;;;;;4.28;2.05;;;;;;;;;;5048420;28;20025;-79
2022/09/29 11:59:16;;;;;;;7.15;2.08;;;;;;;;;;5033066;28;20064;-77
2022/09/29 12:01:53;;;;;;;8.77;3.33;;;;;;;;;;5032947;28;20123;-78
2022/09/29 12:04:22;;;;;;;12.23;5.00;;;;;;;;;;5033589;28;20017;-78
2022/09/29 12:06:48;;;;;;;5.90;3.20;;;;;;;;;;5034039;28;20124;-78
2022/09/29 12:09:32;;;;;;;5.53;2.45;;;;;;;;;;5036888;28;20057;-78
2022/09/29 12:12:04;;;;;;;7.35;3.58;;;;;;;;;;5052255;28;20120;-78
2022/09/29 12:14:38;;;;;;;5.95;2.60;;;;;;;;;;5052142;28;20128;-78
2022/09/29 12:17:08;;;;;;;4.30;2.00;;;;;;;;;;5037070;28;20512;-78
2022/09/29 12:19:37;;;;;;;3.00;1.85;;;;;;;;;;5036704;28;20527;-78
2022/09/29 12:22:03;;;;;;;4.70;1.60;;;;;;;;;;5037111;28;20024;-78
2022/09/29 12:24:34;;;;;;;2.75;1.73;;;;;;;;;;5036648;28;20029;-77
2022/09/29 12:27:02;;;;;;;4.05;1.60;;;;;;;;;;5036775;28;20044;-78
2022/09/29 12:29:33;;;;;;;1.58;1.10;;;;;;;;;;5037043;28;20025;-77
2022/09/29 12:32:02;;;;;;;4.68;1.27;;;;;;;;;;5036316;28;20125;-78
2022/09/29 12:34:43;;;;;;;3.83;1.30;;;;;;;;;;5036388;28;20084;-79
2022/09/29 12:37:13;;;;;;;4.55;1.27;;;;;;;;;;5036916;28;20056;-77
2022/09/29 12:39:59;;;;;;;1.40;1.30;;;;;;;;;;5036374;28;20105;-78
2022/09/29 12:42:31;;;;;;;3.80;1.52;;;;;;;;;;5051555;28;20129;-77
2022/09/29 12:45:01;;;;;;;3.90;1.70;;;;;;;;;;5036494;28;20036;-78
2022/09/29 12:47:27;;;;;;;;;;;;;;;;;;5036746;28;20029;-78
2022/09/29 12:50:03;;;;;;;10.60;3.42;;;;;;;;;;5036464;28;19905;-77
2022/09/29 12:52:32;;;;;;;3.58;1.70;;;;;;;;;;5051455;28;20096;-77
2022/09/29 12:55:01;;;;;;;4.53;2.05;;;;;;;;;;5036118;28;20025;-77
2022/09/29 12:57:32;;;;;;;4.15;2.03;;;;;;;;;;5036243;28;20029;-78
2022/09/29 13:00:00;;;;;;;4.47;1.50;;;;;;;;;;5036299;28;20056;-78
2022/09/29 13:02:51;;;;;;;4.22;1.10;;;;;;;;;;5035826;28;20053;-78
2022/09/29 13:05:34;;;;;;;3.20;1.42;;;;;;;;;;5036155;28;20025;-78
2022/09/29 13:08:13;;;;;;;2.35;1.15;;;;;;;;;;5050964;28;20021;-77
2022/09/29 13:11:03;;;;;;;3.10;1.40;;;;;;;;;;5036368;28;20028;-77
2022/09/29 13:13:38;;;;;;;1.83;0.90;;;;;;;;;;5036301;28;20029;-77
2022/09/29 13:16:07;;;;;;;1.92;1.27;;;;;;;;;;5035691;28;20382;-78
2022/09/29 13:18:48;;;;;;;4.65;1.40;;;;;;;;;;5035570;28;20048;-77
2022/09/29 13:21:38;;;;;;;3.42;1.00;;;;;;;;;;5051335;28;20030;-78
2022/09/29 13:24:31;;;;;;;5.85;1.40;;;;;;;;;;5050611;28;20509;-77
2022/09/29 13:27:25;;;;;;;4.20;1.20;;;;;;;;;;5032803;28;20083;-78
2022/09/29 13:29:55;;;;;;;4.18;1.30;;;;;;;;;;5035729;28;20017;-77
2022/09/29 13:32:22;;;;;;;3.92;1.30;;;;;;;;;;5035390;28;20033;-78
2022/09/29 13:34:53;;;;;;;2.75;1.00;;;;;;;;;;5050660;28;20056;-79
2022/09/29 13:37:20;;;;;;;2.10;1.00;;;;;;;;;;5035572;28;20033;-78
2022/09/29 13:39:52;;;;;;;2.47;1.00;;;;;;;;;;5035525;28;20116;-78
2022/09/29 13:42:26;;;;;;;2.25;1.10;;;;;;;;;;5044987;28;20064;-77
2022/09/29 13:45:11;;;;;;;1.63;0.70;;;;;;;;;;5014087;28;20513;-78
2022/09/29 13:47:44;;;;;;;2.75;1.00;;;;;;;;;;5015321;28;20033;-76
2022/09/29 13:50:29;;;;;;;2.42;1.05;;;;;;;;;;5013662;28;20025;-76
2022/09/29 13:53:15;;;;;;;2.88;0.90;;;;;;;;;;5013016;28;20536;-74
2022/09/29 13:55:54;;;;;;;2.60;0.93;;;;;;;;;;5015138;28;20030;-75
2022/09/29 13:58:24;;;;;;;3.28;1.00;;;;;;;;;;5014830;28;20084;-74
2022/09/29 14:00:50;;;;;;;3.30;0.98;;;;;;;;;;5015315;28;20029;-76
2022/09/29 14:03:31;;;;;;;2.55;0.80;;;;;;;;;;4996824;28;20499;-74
2022/09/29 14:06:18;;;;;;;1.15;0.73;;;;;;;;;;4995437;28;20506;-77
2022/09/29 14:09:04;;;;;;;1.17;0.85;;;;;;;;;;5015447;28;20026;-73
2022/09/29 14:11:30;;;;;;;1.30;0.77;;;;;;;;;;5014142;28;20046;-76
2022/09/29 14:14:14;;;;;;;2.10;0.85;;;;;;;;;;5020885;28;20045;-82
2022/09/29 14:16:46;;;;;;;1.92;0.70;;;;;;;;;;5004994;28;20030;-77
2022/09/29 14:19:33;;;;;;;3.03;1.60;;;;;;;;;;5014026;28;20026;-78
2022/09/29 14:21:59;;;;;;;3.67;1.77;;;;;;;;;;5015353;28;20406;-78
2022/09/29 14:24:40;;;;;;;3.22;0.82;;;;;;;;;;5014069;28;20053;-76
2022/09/29 14:27:28;;;;;;;1.40;0.98;;;;;;;;;;5012435;28;20032;-82
2022/09/29 14:29:58;;;;;;;0.77;0.73;;;;;;;;;;5012564;28;20030;-77
2022/09/29 14:32:31;;;;;;;2.45;0.60;;;;;;;;;;5014849;28;20064;-77
2022/09/29 14:34:59;;;;;;;1.92;0.70;;;;;;;;;;5014531;28;20105;-83
2022/09/29 14:37:26;;;;;;;1.20;0.75;;;;;;;;;;5014605;28;20056;-80
2022/09/29 14:42:38;;;;;;;2.00;0.93;;;;;;;;;;5014375;28;20449;-78
2022/09/29 14:53:33;;;;;;;2.40;0.75;;;;;;;;;;5012149;28;20092;-80
2022/09/29 14:56:00;;;;;;;1.52;0.52;;;;;;;;;;5008526;28;20036;-78
2022/09/29 14:58:28;;;;;;;1.98;0.68;;;;;;;;;;5012523;28;20551;-79
2022/09/29 15:01:09;;;;;;;1.83;0.70;;;;;;;;;;5011302;28;20030;-80
2022/09/29 15:03:45;;;;;;;1.73;0.70;;;;;;;;;;5014816;28;20031;-79
2022/09/29 15:06:14;;;;;;;2.83;0.60;;;;;;;;;;5014489;28;20022;-79
2022/09/29 15:08:41;;;;;;;1.95;0.85;;;;;;;;;;5012658;28;20080;-78
2022/09/29 15:11:26;;;;;;;2.85;0.65;;;;;;;;;;5013164;28;20030;-83
2022/09/29 15:13:54;;;;;;;3.10;1.00;;;;;;;;;;5015513;28;20413;-78
2022/09/29 15:16:43;;;;;;;2.17;1.10;;;;;;;;;;5016718;28;20057;-78